»·PEaware :: N328TD L88-KSBP

N328TD :: L88-KSBP

FLIGHT INFORMATION

Flight Status: Arrived
Operator: Privately registered:
United States
More flights under this callsign
Pilot: Anonymous 15577 (15577)
Aircraft: CESSNA 172 SKYHAWK
(C172)
More flights by this aircraft type
Origin: L88 New Cuyama
United States
Destination: KSBP San Luis Co Regl
United States
More flights between these airports :: More routes between these airports
Route:
File this flight plan on PilotEdge
Remarks: VFR
Altitude:
(Current/Filed)
4,500ft
Speed:
(Current/Filed)
115kts
Departed: 16-Jun-17 12:55 PM
Arrived: 16-Jun-17 01:32 PM
Distance/Time
Traveled:
0nm/0:36
Distance/Time
To Go:
Arrived

Flight Plot

Page will automatically refresh every two minutes.


Map Options




Map Legend


Flown Route
Filed Route
Departure Airport
Arrival Airport
Navaid (VOR, NDB)
Fix

Horizontal Profiles

Position Reports

Time Latitude Longitude Heading Altitude Ground
Speed
16-Jun-17 12:52 34.942856 -119.690289 204 2207ft 0kts
16-Jun-17 12:53 34.942856 -119.690289 204 2207ft 0kts
16-Jun-17 12:54 34.942856 -119.690289 204 2207ft 0kts
16-Jun-17 12:55 34.941391 -119.689003 116 2207ft 33kts
16-Jun-17 12:56 34.939450 -119.684367 296 2209ft 0kts
16-Jun-17 12:57 34.939506 -119.684499 296 2209ft 0kts
16-Jun-17 12:58 34.947955 -119.704471 296 2713ft 91kts
16-Jun-17 13:04 34.942858 -119.690280 204 2207ft 0kts
16-Jun-17 13:05 34.940527 -119.686889 115 2207ft 30kts
16-Jun-17 13:06 34.939427 -119.684163 117 2209ft 0kts
16-Jun-17 13:07 34.939387 -119.684074 119 2209ft 0kts
16-Jun-17 13:08 34.939188 -119.683607 308 2210ft 7kts
16-Jun-17 13:09 34.944292 -119.696051 295 2415ft 86kts
16-Jun-17 13:10 34.956093 -119.724904 296 3171ft 101kts
16-Jun-17 13:11 34.968866 -119.755766 296 3875ft 102kts
16-Jun-17 13:12 34.981735 -119.786716 296 4553ft 107kts
16-Jun-17 13:13 34.996996 -119.823362 296 4548ft 128kts
16-Jun-17 13:14 35.013023 -119.861923 296 4564ft 127kts
16-Jun-17 13:15 35.029077 -119.900595 296 4541ft 127kts
16-Jun-17 13:16 35.045083 -119.939188 296 4542ft 128kts
16-Jun-17 13:17 35.061154 -119.977978 296 4547ft 128kts
16-Jun-17 13:18 35.068417 -120.018815 258 4537ft 128kts
16-Jun-17 13:19 35.061666 -120.061270 258 4545ft 127kts
16-Jun-17 13:20 35.054620 -120.103567 258 4564ft 128kts
16-Jun-17 13:21 35.047392 -120.146220 258 4541ft 127kts
16-Jun-17 13:22 35.040099 -120.188431 258 4550ft 128kts
16-Jun-17 13:23 35.032404 -120.232811 257 4331ft 137kts
16-Jun-17 13:24 35.027614 -120.278524 299 3979ft 138kts
16-Jun-17 13:25 35.048553 -120.317622 305 3593ft 137kts
16-Jun-17 13:26 35.070680 -120.355707 305 3299ft 137kts
16-Jun-17 13:26 35.088471 -120.386276 305 3262ft 128kts
16-Jun-17 13:27 35.109083 -120.421706 305 3263ft 128kts
16-Jun-17 13:29 35.133069 -120.462983 305 3266ft 128kts
16-Jun-17 13:29 35.150468 -120.492970 306 3255ft 129kts
16-Jun-17 13:30 35.172687 -120.529359 309 2743ft 148kts
16-Jun-17 13:32 35.199713 -120.574581 307 1509ft 138kts
16-Jun-17 13:33 35.219609 -120.609541 305 874ft 106kts
16-Jun-17 13:34 35.232352 -120.632038 305 260ft 64kts
16-Jun-17 13:35 35.235327 -120.636264 72 215ft 0kts
16-Jun-17 13:36 35.236660 -120.637666 305 215ft 20kts
16-Jun-17 13:37 35.238117 -120.637672 272 215ft 0kts
16-Jun-17 13:38 35.238117 -120.637672 272 215ft 0kts
16-Jun-17 13:39 35.238117 -120.637672 272 215ft 0kts
16-Jun-17 13:39 34.942846 -119.690283 204 2207ft 0kts
16-Jun-17 13:40 34.942846 -119.690283 204 2207ft 0kts
16-Jun-17 13:41 34.942846 -119.690283 204 2207ft 0kts
16-Jun-17 13:42 34.942846 -119.690283 204 2207ft 0kts
16-Jun-17 13:43 34.942843 -119.690285 206 2207ft 0kts
16-Jun-17 13:44 34.939811 -119.685059 121 2207ft 12kts
16-Jun-17 13:45 34.944742 -119.697306 295 2409ft 84kts
16-Jun-17 13:46 34.956890 -119.726679 296 3094ft 105kts
16-Jun-17 13:47 34.942853 -119.690295 204 2207ft 0kts
16-Jun-17 13:48 34.942853 -119.690295 204 2207ft 0kts

Navigation Log

Ident Type
1. L88 Airport
2. KSBP Airport